Time;durP1;ratioP1;P1;durP2;ratioP2;P2;SDS_P1;SDS_P2;PMS_P1;PMS_P2;Temp;Humidity;BMP_temperature;BMP_pressure;BME280_temperature;BME280_humidity;BME280_pressure;Samples;Min_cycle;Max_cycle;Signal;HPM_P1;HPM_P2
2023/11/13 00:02:02;;;;;;;16.33;6.60;;;;;;;8.94;100.00;100675.50;5260566;28;20035;-72
2023/11/13 00:04:33;;;;;;;11.00;6.28;;;;;;;8.94;100.00;100677.34;5259821;28;20477;-72
2023/11/13 00:07:03;;;;;;;13.18;6.40;;;;;;;8.95;100.00;100671.81;5261671;28;20200;-72
2023/11/13 00:09:34;;;;;;;14.50;6.60;;;;;;;8.97;100.00;100675.16;5253708;28;20024;-72
2023/11/13 00:12:07;;;;;;;12.43;6.45;;;;;;;8.98;100.00;100673.31;5254616;28;20020;-72
2023/11/13 00:14:37;;;;;;;11.88;6.55;;;;;;;9.03;100.00;100665.66;5258148;28;20031;-72
2023/11/13 00:17:08;;;;;;;11.20;6.38;;;;;;;8.97;100.00;100666.31;5260620;28;20435;-72
2023/11/13 00:19:38;;;;;;;14.57;7.00;;;;;;;9.01;100.00;100657.78;5260907;28;20027;-73
2023/11/13 00:22:09;;;;;;;15.30;6.97;;;;;;;9.03;100.00;100663.81;5258115;28;20051;-73
2023/11/13 00:24:39;;;;;;;14.48;6.80;;;;;;;8.96;100.00;100654.75;5253077;28;20150;-73
2023/11/13 00:27:10;;;;;;;15.02;7.03;;;;;;;8.94;100.00;100650.59;5260220;28;20020;-73
2023/11/13 00:29:40;;;;;;;12.70;6.70;;;;;;;9.00;100.00;100653.44;5267315;28;20030;-73
2023/11/13 00:32:11;;;;;;;17.00;6.78;;;;;;;8.96;100.00;100653.94;5256296;28;20139;-74
2023/11/13 00:34:41;;;;;;;12.30;7.03;;;;;;;8.98;100.00;100652.75;5257933;28;20109;-73
2023/11/13 00:37:13;;;;;;;17.58;7.50;;;;;;;8.95;100.00;100647.75;5254851;28;20058;-73
2023/11/13 00:39:43;;;;;;;16.02;7.40;;;;;;;8.99;100.00;100651.78;5261087;28;20475;-73
2023/11/13 00:42:15;;;;;;;15.50;7.63;;;;;;;8.93;100.00;100644.38;5259652;28;20100;-73
2023/11/13 00:44:46;;;;;;;14.43;7.13;;;;;;;8.91;100.00;100637.53;5258318;28;20032;-73
2023/11/13 00:47:17;;;;;;;18.42;8.25;;;;;;;8.91;100.00;100640.19;5262195;28;20027;-73
2023/11/13 00:49:47;;;;;;;18.73;8.55;;;;;;;8.97;100.00;100642.22;5264571;28;20031;-73
2023/11/13 00:52:18;;;;;;;16.23;9.27;;;;;;;9.00;100.00;100641.91;5254626;28;20024;-73
2023/11/13 00:54:48;;;;;;;15.05;7.47;;;;;;;8.96;100.00;100632.53;5258735;28;20023;-73
2023/11/13 00:57:19;;;;;;;15.00;7.82;;;;;;;9.04;100.00;100628.06;5258554;28;20024;-73
2023/11/13 00:59:49;;;;;;;15.85;7.90;;;;;;;9.01;100.00;100614.97;5264976;28;20016;-74
2023/11/13 01:02:22;;;;;;;15.68;7.82;;;;;;;9.04;100.00;100620.03;5271787;28;20020;-73
2023/11/13 01:04:52;;;;;;;14.25;7.63;;;;;;;9.08;100.00;100616.00;5273385;28;20604;-74
2023/11/13 01:07:23;;;;;;;18.35;8.13;;;;;;;9.10;100.00;100612.34;5273557;28;20035;-74
2023/11/13 01:09:55;;;;;;;18.35;9.00;;;;;;;9.05;100.00;100605.63;5266279;28;20015;-74
2023/11/13 01:12:25;;;;;;;15.40;8.20;;;;;;;9.04;100.00;100603.97;5267189;28;20033;-74
2023/11/13 01:14:56;;;;;;;18.88;8.52;;;;;;;9.08;100.00;100605.28;5264938;28;20047;-74
2023/11/13 01:17:27;;;;;;;17.15;8.95;;;;;;;9.10;100.00;100602.47;5264938;28;20024;-74
2023/11/13 01:19:57;;;;;;;15.75;8.65;;;;;;;9.07;100.00;100614.34;5265958;28;20020;-74
2023/11/13 01:22:28;;;;;;;17.75;8.50;;;;;;;9.04;100.00;100601.28;5265870;28;20522;-74
2023/11/13 01:24:58;;;;;;;18.65;9.27;;;;;;;9.08;100.00;100589.25;5268453;28;20027;-74
2023/11/13 01:27:29;;;;;;;23.20;9.77;;;;;;;9.11;100.00;100581.91;5264947;28;20039;-74
2023/11/13 01:29:59;;;;;;;24.17;9.30;;;;;;;9.40;100.00;100578.78;5271912;28;20023;-73
2023/11/13 01:32:29;;;;;;;22.40;9.13;;;;;;;9.48;100.00;100581.47;5266813;28;20032;-74
2023/11/13 01:35:00;;;;;;;20.52;8.88;;;;;;;9.49;100.00;100573.28;5265481;28;20032;-73
2023/11/13 01:37:31;;;;;;;26.85;9.68;;;;;;;9.51;100.00;100575.78;5265602;28;20032;-74
2023/11/13 01:40:03;;;;;;;24.35;9.73;;;;;;;9.50;100.00;100591.03;5262539;28;20020;-74
2023/11/13 01:42:35;;;;;;;22.20;8.60;;;;;;;9.52;100.00;100594.34;5264494;28;20035;-74
2023/11/13 01:45:06;;;;;;;17.80;8.88;;;;;;;9.53;100.00;100593.34;5267180;28;20107;-73
2023/11/13 01:47:37;;;;;;;21.65;8.82;;;;;;;9.57;100.00;100601.91;5263152;28;20024;-73
2023/11/13 01:50:09;;;;;;;20.98;9.05;;;;;;;9.55;100.00;100599.41;5265400;28;20034;-74
2023/11/13 01:52:41;;;;;;;21.90;8.63;;;;;;;9.55;100.00;100610.09;5263822;28;20392;-73
2023/11/13 01:55:12;;;;;;;28.40;9.63;;;;;;;9.49;100.00;100605.41;5262448;28;20054;-74
2023/11/13 01:57:43;;;;;;;21.20;8.75;;;;;;;9.58;100.00;100609.75;5263225;28;20023;-73
2023/11/13 02:00:14;;;;;;;22.23;9.38;;;;;;;9.63;100.00;100614.63;5260123;28;20036;-73
2023/11/13 02:02:46;;;;;;;22.88;9.95;;;;;;;9.66;100.00;100595.56;5260424;28;20202;-73
2023/11/13 02:05:17;;;;;;;30.17;10.43;;;;;;;9.63;100.00;100595.88;5267194;28;20028;-73
2023/11/13 02:07:48;;;;;;;31.02;11.38;;;;;;;9.67;100.00;100594.53;5263334;28;20028;-73
2023/11/13 02:10:20;;;;;;;27.42;10.50;;;;;;;9.72;100.00;100602.09;5266203;28;20020;-74
2023/11/13 02:12:51;;;;;;;22.80;10.45;;;;;;;9.78;100.00;100601.41;5268162;28;20040;-72
2023/11/13 02:15:21;;;;;;;25.50;10.18;;;;;;;9.81;100.00;100595.72;5265596;28;20481;-73
2023/11/13 02:18:00;;;;;;;28.30;10.57;;;;;;;9.83;100.00;100596.38;5270845;28;20023;-73
2023/11/13 02:20:31;;;;;;;30.48;11.63;;;;;;;9.83;100.00;100605.25;5266979;28;20028;-73
2023/11/13 02:23:02;;;;;;;25.73;10.82;;;;;;;9.84;100.00;100598.09;5275647;28;20476;-73
2023/11/13 02:25:37;;;;;;;32.63;11.60;;;;;;;9.84;100.00;100596.25;5264279;28;20094;-73
2023/11/13 02:28:09;;;;;;;32.75;11.52;;;;;;;9.90;100.00;100593.91;5269942;28;20031;-74
2023/11/13 02:30:40;;;;;;;28.27;10.95;;;;;;;9.95;100.00;100594.22;5276035;28;20560;-73
2023/11/13 02:33:10;;;;;;;26.50;11.10;;;;;;;9.97;100.00;100595.72;5270005;28;20072;-74
2023/11/13 02:35:41;;;;;;;33.78;12.07;;;;;;;9.96;100.00;100594.06;5273284;28;20024;-73
2023/11/13 02:38:11;;;;;;;30.13;11.55;;;;;;;9.98;100.00;100581.31;5270465;28;20020;-73
2023/11/13 02:40:42;;;;;;;38.60;12.38;;;;;;;10.07;100.00;100580.28;5269842;28;20020;-73
2023/11/13 02:43:12;;;;;;;33.80;12.45;;;;;;;10.07;100.00;100584.81;5266331;28;20363;-73
2023/11/13 02:45:43;;;;;;;36.05;13.38;;;;;;;10.13;100.00;100590.34;5273529;28;20020;-73
2023/11/13 02:48:16;;;;;;;35.83;13.57;;;;;;;10.15;100.00;100592.03;5269064;28;20040;-73
2023/11/13 02:50:46;;;;;;;28.10;12.60;;;;;;;10.20;100.00;100576.28;5268654;28;20051;-73
2023/11/13 02:53:17;;;;;;;27.65;12.85;;;;;;;10.22;100.00;100568.88;5263842;28;20027;-73
2023/11/13 02:55:51;;;;;;;35.05;13.52;;;;;;;10.32;100.00;100572.25;5267662;28;20016;-73
2023/11/13 02:58:21;;;;;;;36.67;13.57;;;;;;;10.29;100.00;100564.53;5265911;28;20028;-73
2023/11/13 03:00:52;;;;;;;38.70;13.82;;;;;;;10.36;100.00;100560.19;5274522;28;20695;-73
2023/11/13 03:03:25;;;;;;;38.35;13.75;;;;;;;10.41;100.00;100559.66;5268805;28;20028;-73
2023/11/13 03:05:55;;;;;;;36.20;14.43;;;;;;;10.41;100.00;100563.19;5265832;28;20030;-73
2023/11/13 03:08:26;;;;;;;38.70;14.75;;;;;;;10.49;100.00;100559.63;5263974;28;20385;-73
2023/11/13 03:10:56;;;;;;;38.55;15.23;;;;;;;10.55;100.00;100554.41;5264338;28;20069;-73
2023/11/13 03:13:27;;;;;;;41.20;15.40;;;;;;;10.59;100.00;100549.53;5270130;28;20031;-73
2023/11/13 03:15:58;;;;;;;36.28;14.38;;;;;;;10.64;100.00;100552.53;5270943;28;20024;-73
2023/11/13 03:18:29;;;;;;;35.55;14.70;;;;;;;10.68;100.00;100540.44;5264076;28;20035;-73
2023/11/13 03:21:00;;;;;;;39.67;14.93;;;;;;;10.71;100.00;100540.09;5265966;28;20016;-73
2023/11/13 03:23:31;;;;;;;44.47;15.93;;;;;;;10.74;100.00;100539.72;5266755;28;20036;-73
2023/11/13 03:26:03;;;;;;;51.75;16.80;;;;;;;10.75;100.00;100530.69;5268452;28;20020;-73
2023/11/13 03:28:34;;;;;;;49.55;16.23;;;;;;;10.80;100.00;100522.13;5266277;28;20104;-73
2023/11/13 03:31:06;;;;;;;46.35;15.38;;;;;;;10.83;100.00;100509.16;5264645;28;20027;-73
2023/11/13 03:33:37;;;;;;;60.78;17.42;;;;;;;10.89;100.00;100504.94;5265137;28;20473;-73
2023/11/13 03:36:07;;;;;;;50.85;16.80;;;;;;;10.91;100.00;100513.66;5266001;28;20039;-73
2023/11/13 03:38:38;;;;;;;54.88;15.15;;;;;;;10.92;100.00;100517.19;5267650;28;20020;-73
2023/11/13 03:41:08;;;;;;;51.22;17.20;;;;;;;10.93;100.00;100510.81;5266585;28;20119;-73
2023/11/13 03:43:39;;;;;;;62.90;17.80;;;;;;;10.97;100.00;100517.50;5268521;28;20063;-73
2023/11/13 03:46:10;;;;;;;52.55;16.95;;;;;;;11.02;100.00;100515.13;5263051;28;20081;-73
2023/11/13 03:48:40;;;;;;;56.70;17.02;;;;;;;11.03;100.00;100532.88;5263483;28;20063;-73
2023/11/13 03:51:10;;;;;;;59.47;18.15;;;;;;;11.03;100.00;100533.72;5264212;28;20591;-73
2023/11/13 03:53:41;;;;;;;48.22;16.80;;;;;;;11.02;100.00;100528.53;5268118;28;20289;-73
2023/11/13 03:56:11;;;;;;;47.00;16.70;;;;;;;11.03;100.00;100543.63;5263942;28;20031;-73
2023/11/13 03:58:42;;;;;;;74.32;18.20;;;;;;;11.05;100.00;100547.81;5261862;28;20028;-73
2023/11/13 04:01:14;;;;;;;63.65;18.50;;;;;;;11.08;100.00;100551.97;5263946;28;20099;-73
2023/11/13 04:03:45;;;;;;;59.35;18.10;;;;;;;11.13;100.00;100546.91;5264101;28;20495;-73
2023/11/13 04:06:16;;;;;;;61.92;19.50;;;;;;;11.13;100.00;100537.00;5263033;28;20030;-73
2023/11/13 04:08:46;;;;;;;67.22;19.48;;;;;;;11.18;100.00;100536.47;5268556;28;20111;-73
2023/11/13 04:11:17;;;;;;;64.25;19.33;;;;;;;11.23;100.00;100533.28;5265749;28;20107;-73
2023/11/13 04:13:48;;;;;;;65.43;18.40;;;;;;;11.26;100.00;100541.81;5263874;28;20152;-73
2023/11/13 04:16:18;;;;;;;56.53;17.63;;;;;;;11.31;100.00;100550.16;5263640;28;20028;-74
2023/11/13 04:18:49;;;;;;;75.45;18.77;;;;;;;11.35;100.00;100542.59;5262817;28;20470;-73
2023/11/13 04:21:19;;;;;;;53.50;17.08;;;;;;;11.36;100.00;100534.34;5260989;28;20115;-73
2023/11/13 04:23:50;;;;;;;67.63;18.17;;;;;;;11.37;100.00;100546.75;5260036;28;20110;-73
2023/11/13 04:26:20;;;;;;;62.83;16.63;;;;;;;11.43;100.00;100544.38;5263535;28;20024;-74
2023/11/13 04:28:51;;;;;;;70.00;18.33;;;;;;;11.46;100.00;100547.53;5262449;28;20035;-73
2023/11/13 04:31:22;;;;;;;65.50;17.75;;;;;;;11.49;100.00;100544.47;5256945;28;20031;-74
2023/11/13 04:33:52;;;;;;;72.18;17.13;;;;;;;11.51;100.00;100544.31;5260020;28;20032;-74
2023/11/13 04:36:25;;;;;;;58.80;17.33;;;;;;;11.58;100.00;100545.25;5258438;28;20133;-74
2023/11/13 04:38:55;;;;;;;53.55;16.48;;;;;;;11.59;100.00;100546.94;5262301;28;20502;-74
2023/11/13 04:41:26;;;;;;;63.30;15.50;;;;;;;11.58;100.00;100548.78;5263502;28;20111;-74
2023/11/13 04:43:57;;;;;;;62.38;15.82;;;;;;;11.59;100.00;100555.00;5263771;28;20020;-74
2023/11/13 04:46:28;;;;;;;58.47;16.13;;;;;;;11.61;100.00;100561.03;5260952;28;20030;-74
2023/11/13 04:48:58;;;;;;;66.88;15.68;;;;;;;11.62;100.00;100554.66;5262382;28;20058;-74
2023/11/13 04:51:29;;;;;;;52.22;14.45;;;;;;;11.63;100.00;100548.25;5263146;28;20073;-74
2023/11/13 04:54:00;;;;;;;58.55;15.25;;;;;;;11.69;100.00;100552.91;5263614;28;20050;-74
2023/11/13 04:56:31;;;;;;;61.30;15.45;;;;;;;11.71;100.00;100550.88;5262147;28;20040;-74
2023/11/13 04:59:01;;;;;;;55.40;14.48;;;;;;;11.70;100.00;100546.53;5260187;28;20446;-74
2023/11/13 05:01:36;;;;;;;76.68;15.65;;;;;;;11.72;100.00;100538.28;5262531;28;20028;-75
2023/11/13 05:04:07;;;;;;;63.97;14.90;;;;;;;11.79;100.00;100536.53;5262968;28;20020;-74
2023/11/13 05:06:38;;;;;;;65.35;15.18;;;;;;;11.75;100.00;100527.19;5261064;28;20487;-74
2023/11/13 05:09:09;;;;;;;55.50;13.73;;;;;;;11.73;100.00;100524.66;5261971;28;20032;-74
2023/11/13 05:11:40;;;;;;;57.38;12.27;;;;;;;11.68;100.00;100521.66;5268827;28;20016;-74
2023/11/13 05:14:10;;;;;;;59.90;13.77;;;;;;;11.68;100.00;100514.44;5263194;28;20047;-74
2023/11/13 05:16:41;;;;;;;56.40;13.70;;;;;;;11.68;100.00;100510.91;5269132;28;20552;-74
2023/11/13 05:19:11;;;;;;;59.88;12.70;;;;;;;11.71;100.00;100518.63;5258431;28;20099;-74
2023/11/13 05:21:42;;;;;;;59.33;11.90;;;;;;;11.73;100.00;100518.44;5268808;28;20054;-74
2023/11/13 05:24:12;;;;;;;52.20;11.60;;;;;;;11.76;100.00;100524.28;5262840;28;20015;-74
2023/11/13 05:26:43;;;;;;;62.88;12.27;;;;;;;11.87;100.00;100515.81;5267771;28;20023;-74
2023/11/13 05:29:13;;;;;;;50.60;10.68;;;;;;;11.90;100.00;100507.41;5263710;28;20086;-74
2023/11/13 05:31:44;;;;;;;59.78;10.48;;;;;;;11.96;100.00;100503.13;5269815;28;20120;-74
2023/11/13 05:34:14;;;;;;;51.53;8.95;;;;;;;11.95;100.00;100503.31;5258960;28;20062;-74
2023/11/13 05:36:45;;;;;;;46.03;8.82;;;;;;;12.05;100.00;100496.66;5263295;28;20165;-74
2023/11/13 05:39:16;;;;;;;59.95;8.75;;;;;;;12.07;100.00;100486.56;5263903;28;20115;-74
2023/11/13 05:41:46;;;;;;;41.05;8.10;;;;;;;12.02;100.00;100483.56;5265959;28;20030;-74
2023/11/13 05:44:16;;;;;;;58.50;8.90;;;;;;;12.02;100.00;100464.75;5266561;28;20035;-74
2023/11/13 05:46:47;;;;;;;49.40;8.10;;;;;;;12.01;100.00;100470.34;5262694;28;20031;-74
2023/11/13 05:49:17;;;;;;;51.47;8.40;;;;;;;12.10;100.00;100466.53;5264551;28;20028;-74
2023/11/13 05:51:48;;;;;;;40.30;7.10;;;;;;;12.03;100.00;100471.81;5273638;28;20513;-74
2023/11/13 05:54:19;;;;;;;56.22;9.20;;;;;;;12.05;100.00;100456.34;5271097;28;20054;-74
2023/11/13 05:56:50;;;;;;;58.75;9.57;;;;;;;12.08;100.00;100468.56;5263558;28;20068;-74
2023/11/13 05:59:20;;;;;;;52.92;9.27;;;;;;;12.09;100.00;100471.06;5269572;28;20107;-74
2023/11/13 06:01:50;;;;;;;58.40;8.63;;;;;;;12.07;100.00;100470.41;5269037;28;20153;-74
2023/11/13 06:04:21;;;;;;;56.05;9.20;;;;;;;12.11;100.00;100471.72;5271097;28;20031;-74
2023/11/13 06:06:51;;;;;;;61.25;9.10;;;;;;;12.12;100.00;100467.19;5274344;28;20015;-74
2023/11/13 06:09:22;;;;;;;44.95;8.38;;;;;;;12.06;100.00;100465.22;5267907;28;20024;-74
2023/11/13 06:11:52;;;;;;;56.17;8.43;;;;;;;12.12;100.00;100461.78;5269278;28;20026;-74
2023/11/13 06:14:23;;;;;;;45.60;8.82;;;;;;;12.07;100.00;100459.66;5269062;28;20939;-74
2023/11/13 06:16:54;;;;;;;50.85;8.25;;;;;;;12.19;100.00;100451.94;5268730;28;20028;-74
2023/11/13 06:19:24;;;;;;;48.28;8.65;;;;;;;12.18;100.00;100442.22;5268882;28;20016;-74
2023/11/13 06:21:55;;;;;;;50.33;8.45;;;;;;;12.18;100.00;100450.28;5268708;28;20020;-74
2023/11/13 06:24:26;;;;;;;49.75;8.65;;;;;;;12.09;100.00;100448.72;5266947;28;20097;-74
2023/11/13 06:26:56;;;;;;;46.75;7.63;;;;;;;12.10;100.00;100448.56;5270944;28;20055;-74
2023/11/13 06:29:27;;;;;;;35.75;6.97;;;;;;;12.14;100.00;100460.56;5266978;28;20024;-74
2023/11/13 06:31:58;;;;;;;44.45;7.20;;;;;;;12.10;100.00;100455.78;5266630;28;20153;-74
2023/11/13 06:34:29;;;;;;;29.50;5.25;;;;;;;12.04;100.00;100456.50;5267744;28;20024;-74
2023/11/13 06:36:59;;;;;;;39.05;6.75;;;;;;;12.00;100.00;100453.38;5269495;28;20031;-74
2023/11/13 06:39:30;;;;;;;25.55;4.88;;;;;;;11.98;100.00;100452.69;5268553;28;20028;-74
2023/11/13 06:42:01;;;;;;;22.17;4.40;;;;;;;11.89;100.00;100459.19;5271864;28;20107;-74
2023/11/13 06:44:31;;;;;;;28.83;5.38;;;;;;;11.91;100.00;100462.53;5268461;28;20020;-74
2023/11/13 06:47:02;;;;;;;18.30;4.03;;;;;;;11.84;100.00;100477.72;5267580;28;20442;-74
2023/11/13 06:49:33;;;;;;;22.23;4.28;;;;;;;11.78;100.00;100484.63;5268145;28;20465;-75
2023/11/13 06:52:07;;;;;;;26.20;4.40;;;;;;;11.82;100.00;100474.38;5269558;28;20024;-74
2023/11/13 06:54:37;;;;;;;33.25;4.35;;;;;;;11.80;100.00;100460.28;5264934;28;20085;-74
2023/11/13 06:57:08;;;;;;;22.35;4.47;;;;;;;11.71;100.00;100434.50;5270057;28;20020;-74
2023/11/13 06:59:40;;;;;;;27.67;4.78;;;;;;;11.67;100.00;100423.28;5267818;28;20031;-74
2023/11/13 07:02:11;;;;;;;27.60;4.28;;;;;;;11.66;100.00;100414.38;5262804;28;20047;-74
2023/11/13 07:04:41;;;;;;;30.92;5.03;;;;;;;11.71;100.00;100404.94;5262960;28;20481;-74
2023/11/13 07:07:12;;;;;;;23.40;6.07;;;;;;;11.59;100.00;100393.78;5266908;28;20465;-74
2023/11/13 07:09:42;;;;;;;27.30;5.43;;;;;;;11.54;100.00;100393.50;5265855;28;20012;-75
2023/11/13 07:12:14;;;;;;;22.92;4.25;;;;;;;11.62;100.00;100378.16;5267877;28;20016;-74
2023/11/13 07:14:44;;;;;;;29.42;4.97;;;;;;;11.74;100.00;100369.63;5263284;28;20137;-74
2023/11/13 07:17:14;;;;;;;25.67;4.88;;;;;;;11.57;100.00;100383.25;5265344;28;20115;-75
2023/11/13 07:19:45;;;;;;;22.67;4.93;;;;;;;11.52;100.00;100372.22;5266892;28;20055;-74
2023/11/13 07:22:16;;;;;;;29.52;5.47;;;;;;;11.58;100.00;100366.09;5268111;28;20035;-74
2023/11/13 07:24:47;;;;;;;23.92;5.28;;;;;;;11.60;100.00;100358.69;5260176;28;20085;-75
2023/11/13 07:27:17;;;;;;;24.88;3.85;;;;;;;11.49;100.00;100348.38;5258923;28;20845;-75
2023/11/13 07:29:49;;;;;;;30.63;4.63;;;;;;;11.47;100.00;100342.38;5262128;28;20055;-75
2023/11/13 07:32:19;;;;;;;23.60;4.30;;;;;;;11.50;100.00;100335.81;5264489;28;20038;-74
2023/11/13 07:34:53;;;;;;;18.13;4.78;;;;;;;11.65;100.00;100337.47;5268998;28;20032;-74
2023/11/13 07:37:23;;;;;;;21.83;4.20;;;;;;;11.65;100.00;100325.91;5265767;28;20024;-74
2023/11/13 07:39:54;;;;;;;23.33;4.30;;;;;;;11.62;100.00;100307.47;5264484;28;20378;-74
2023/11/13 07:42:24;;;;;;;27.65;4.60;;;;;;;11.73;100.00;100306.16;5265124;28;20023;-74
2023/11/13 07:44:56;;;;;;;20.40;4.25;;;;;;;11.61;100.00;100295.88;5263634;28;20053;-74
2023/11/13 07:47:27;;;;;;;23.92;4.47;;;;;;;11.68;100.00;100302.16;5266355;28;20123;-74
2023/11/13 07:49:57;;;;;;;14.88;3.30;;;;;;;11.71;100.00;100292.09;5266343;28;20485;-74
2023/11/13 07:52:28;;;;;;;19.58;3.90;;;;;;;11.55;100.00;100277.81;5266643;28;20108;-74
2023/11/13 07:55:01;;;;;;;23.10;3.92;;;;;;;11.66;100.00;100280.03;5263423;28;20088;-74
2023/11/13 07:57:31;;;;;;;17.65;3.90;;;;;;;11.54;100.00;100272.63;5264291;28;20020;-74
2023/11/13 08:00:03;;;;;;;19.80;3.75;;;;;;;11.57;100.00;100274.94;5258317;28;20613;-74
2023/11/13 08:02:34;;;;;;;16.90;4.38;;;;;;;11.53;100.00;100260.22;5260785;28;20085;-74
2023/11/13 08:05:05;;;;;;;19.48;4.00;;;;;;;11.67;100.00;100241.38;5261248;28;20012;-74
2023/11/13 08:07:37;;;;;;;18.27;3.92;;;;;;;11.57;100.00;100246.22;5262940;28;20446;-74
2023/11/13 08:10:13;;;;;;;15.48;3.67;;;;;;;11.56;100.00;100239.19;5263572;28;20027;-74
2023/11/13 08:12:46;;;;;;;17.45;3.78;;;;;;;11.63;100.00;100215.91;5266100;28;20020;-74
2023/11/13 08:15:16;;;;;;;16.88;4.82;;;;;;;11.60;100.00;100213.63;5259839;28;20020;-74
2023/11/13 08:17:52;;;;;;;18.77;3.45;;;;;;;11.54;100.00;100210.84;5257996;28;20027;-74
2023/11/13 08:20:26;;;;;;;18.27;3.08;;;;;;;11.70;100.00;100209.78;5253935;28;20090;-74
2023/11/13 08:22:56;;;;;;;19.20;4.05;;;;;;;11.71;100.00;100201.56;5263054;28;20156;-74
2023/11/13 08:25:27;;;;;;;21.05;4.03;;;;;;;11.64;100.00;100196.09;5262977;28;20020;-74
2023/11/13 08:27:58;;;;;;;21.95;4.68;;;;;;;11.79;100.00;100200.59;5265177;28;20020;-73
2023/11/13 08:30:28;;;;;;;20.45;3.83;;;;;;;11.73;100.00;100196.81;5264014;28;20104;-74
2023/11/13 08:32:59;;;;;;;17.40;4.60;;;;;;;11.70;100.00;100170.34;5263843;28;20024;-74
2023/11/13 08:35:31;;;;;;;13.88;3.72;;;;;;;11.75;100.00;100130.28;5264253;28;20561;-74
2023/11/13 08:38:02;;;;;;;17.85;3.40;;;;;;;11.72;100.00;100097.59;5262959;28;20495;-74
2023/11/13 08:40:33;;;;;;;18.13;3.88;;;;;;;11.74;100.00;100127.78;5261500;28;20020;-74
2023/11/13 08:43:10;;;;;;;13.10;3.25;;;;;;;11.87;100.00;100122.56;5264141;28;20023;-74
2023/11/13 08:45:40;;;;;;;17.92;3.45;;;;;;;11.98;100.00;100124.75;5264992;28;20016;-74
2023/11/13 08:48:11;;;;;;;22.23;4.38;;;;;;;12.04;100.00;100140.09;5262708;28;20016;-74
2023/11/13 08:50:44;;;;;;;15.90;3.35;;;;;;;12.08;100.00;100127.09;5263210;28;20103;-74
2023/11/13 08:53:14;;;;;;;24.33;3.83;;;;;;;12.12;100.00;100128.38;5263143;28;20420;-74
2023/11/13 08:55:45;;;;;;;15.88;3.78;;;;;;;12.18;100.00;100132.97;5263384;28;20027;-74
2023/11/13 08:58:15;;;;;;;27.65;4.40;;;;;;;12.22;100.00;100117.28;5262547;28;20024;-74
2023/11/13 09:00:48;;;;;;;15.70;4.43;;;;;;;12.25;100.00;100108.81;5262599;28;20077;-74
2023/11/13 09:03:20;;;;;;;20.13;3.75;;;;;;;12.20;100.00;100112.13;5260954;28;20458;-74
2023/11/13 09:05:51;;;;;;;14.32;3.58;;;;;;;12.36;100.00;100105.63;5250014;28;20039;-74
2023/11/13 09:08:21;;;;;;;20.42;4.53;;;;;;;12.28;100.00;100079.69;5260046;28;20012;-74
2023/11/13 09:10:51;;;;;;;11.45;4.32;;;;;;;12.29;100.00;100067.06;5262963;28;20085;-74
2023/11/13 09:13:24;;;;;;;21.13;4.45;;;;;;;12.44;100.00;100067.78;5263787;28;20027;-73
2023/11/13 09:15:54;;;;;;;10.35;4.03;;;;;;;12.43;100.00;100061.59;5263465;28;20030;-74
2023/11/13 09:18:26;;;;;;;17.33;3.33;;;;;;;12.52;100.00;100064.97;5271825;28;20455;-74
2023/11/13 09:20:58;;;;;;;18.80;4.30;;;;;;;12.62;100.00;100078.06;5263212;28;20039;-74
2023/11/13 09:23:28;;;;;;;23.88;4.45;;;;;;;12.70;100.00;100070.66;5266249;28;20616;-74
2023/11/13 09:25:59;;;;;;;21.30;4.03;;;;;;;12.87;100.00;100076.53;5262000;28;20026;-74
2023/11/13 09:28:29;;;;;;;20.60;4.60;;;;;;;13.00;100.00;100073.06;5267776;28;20020;-74
2023/11/13 09:30:59;;;;;;;20.58;4.38;;;;;;;12.99;100.00;100066.00;5267974;28;20155;-74
2023/11/13 09:33:30;;;;;;;20.42;4.95;;;;;;;13.02;100.00;100052.16;5269328;28;20414;-74
2023/11/13 09:36:00;;;;;;;19.70;4.38;;;;;;;13.06;100.00;100048.03;5269488;28;20107;-74
2023/11/13 09:38:31;;;;;;;18.60;5.15;;;;;;;13.21;100.00;100046.03;5267637;28;20023;-74
2023/11/13 09:41:03;;;;;;;21.38;5.07;;;;;;;13.26;100.00;100045.44;5265513;28;20012;-74
2023/11/13 09:43:36;;;;;;;28.85;4.75;;;;;;;13.37;100.00;100047.53;5265175;28;20115;-74
2023/11/13 09:46:08;;;;;;;20.50;4.47;;;;;;;13.45;100.00;100046.50;5263902;28;20024;-74
2023/11/13 09:48:50;;;;;;;22.83;4.50;;;;;;;13.62;100.00;100044.25;5258012;28;20012;-74
2023/11/13 09:51:21;;;;;;;20.98;4.60;;;;;;;13.67;100.00;100050.69;5266178;28;20020;-74
2023/11/13 09:53:53;;;;;;;21.65;5.63;;;;;;;13.76;100.00;100048.63;5269855;28;20051;-74
2023/11/13 09:56:27;;;;;;;27.58;5.78;;;;;;;13.99;100.00;100048.22;5266060;28;20073;-74
2023/11/13 09:58:59;;;;;;;22.05;5.57;;;;;;;14.08;100.00;100044.28;5266853;28;20024;-74
2023/11/13 10:01:31;;;;;;;21.92;6.32;;;;;;;14.22;100.00;100050.50;5266002;28;20016;-74
2023/11/13 10:04:04;;;;;;;26.17;5.07;;;;;;;14.41;100.00;100030.75;5267344;28;20027;-74
2023/11/13 10:06:36;;;;;;;21.08;5.43;;;;;;;14.46;100.00;100020.16;5260813;28;20542;-74
2023/11/13 10:09:08;;;;;;;24.10;5.68;;;;;;;14.54;100.00;100023.66;5261877;28;20069;-74
2023/11/13 10:11:38;;;;;;;28.88;6.47;;;;;;;14.66;100.00;100012.03;5264327;28;20032;-74
2023/11/13 10:14:12;;;;;;;29.00;5.85;;;;;;;14.88;100.00;100011.72;5268674;28;20047;-74
2023/11/13 10:16:54;;;;;;;28.00;5.30;;;;;;;14.96;100.00;100006.06;5261297;28;20106;-74
2023/11/13 10:19:28;;;;;;;29.38;5.55;;;;;;;15.06;100.00;100001.03;5265370;28;20020;-74
2023/11/13 10:21:58;;;;;;;17.88;5.57;;;;;;;15.09;100.00;99997.88;5264673;28;20028;-74
2023/11/13 10:24:29;;;;;;;31.00;5.35;;;;;;;15.18;100.00;99993.91;5261365;28;20452;-74
2023/11/13 10:27:00;;;;;;;29.98;5.80;;;;;;;15.36;100.00;99995.03;5259705;28;20020;-75
2023/11/13 10:29:30;;;;;;;22.50;5.05;;;;;;;15.43;100.00;99985.84;5265662;28;20031;-74
2023/11/13 10:32:01;;;;;;;24.33;5.97;;;;;;;15.46;100.00;99992.66;5266635;28;20024;-75
2023/11/13 10:34:51;;;;;;;17.52;4.25;;;;;;;15.43;100.00;99982.31;5265499;28;20028;-74
2023/11/13 10:37:21;;;;;;;23.90;4.70;;;;;;;15.54;100.00;99968.91;5263808;28;20020;-74
2023/11/13 10:39:52;;;;;;;17.75;4.80;;;;;;;15.52;100.00;99978.28;5266387;28;20031;-74
2023/11/13 10:42:22;;;;;;;25.17;5.40;;;;;;;15.50;100.00;99953.34;5264392;28;20016;-75
2023/11/13 10:44:58;;;;;;;28.80;6.03;;;;;;;15.58;100.00;99958.50;5264063;28;20035;-75
2023/11/13 10:47:30;;;;;;;19.13;4.55;;;;;;;15.60;100.00;99956.38;5263006;28;20024;-75
2023/11/13 10:50:02;;;;;;;25.52;5.75;;;;;;;15.61;100.00;99954.50;5264737;28;20062;-76
2023/11/13 10:52:35;;;;;;;16.35;4.88;;;;;;;15.61;100.00;99944.50;5266371;28;20027;-75
2023/11/13 10:55:06;;;;;;;22.02;4.60;;;;;;;15.63;100.00;99949.72;5264882;28;20400;-77
2023/11/13 10:57:39;;;;;;;20.80;4.80;;;;;;;15.58;100.00;99942.28;5265360;28;20042;-75
2023/11/13 11:00:12;;;;;;;20.58;5.20;;;;;;;15.59;100.00;99943.09;5262794;28;20460;-76
2023/11/13 11:02:45;;;;;;;21.73;4.78;;;;;;;15.48;100.00;99937.34;5264930;28;20030;-76
2023/11/13 11:05:22;;;;;;;20.80;4.88;;;;;;;15.51;100.00;99917.16;5264737;28;20016;-76
2023/11/13 11:07:54;;;;;;;19.25;5.40;;;;;;;15.43;100.00;99917.44;5265936;28;20028;-76
2023/11/13 11:10:25;;;;;;;33.05;6.85;;;;;;;15.47;100.00;99914.09;5265380;28;20023;-76
2023/11/13 11:13:00;;;;;;;25.25;5.00;;;;;;;15.39;100.00;99908.94;5261024;28;20032;-75
2023/11/13 11:15:59;;;;;;;21.63;5.15;;;;;;;15.57;100.00;99905.47;5264750;28;20024;-75
2023/11/13 11:18:40;;;;;;;19.35;4.63;;;;;;;15.61;100.00;99900.44;5263150;28;20012;-75
2023/11/13 11:21:27;;;;;;;24.38;4.82;;;;;;;15.54;100.00;99892.38;5263907;28;20020;-74
2023/11/13 11:24:07;;;;;;;17.15;5.00;;;;;;;15.60;100.00;99890.66;5261653;28;20028;-75
2023/11/13 11:26:58;;;;;;;20.52;3.83;;;;;;;15.72;100.00;99864.59;5265374;28;20496;-75
2023/11/13 11:29:33;;;;;;;17.83;4.32;;;;;;;15.72;100.00;99859.19;5264856;28;20020;-75